Lyerly, GA (30730)

4:33 PM EDT en Octubre 31, 2014 (GMT -0400)
Fair Oaks/West Rome | Change Station
CLOSE
Current Station
Estación meteorológica personal
Location: Rome, GA
Altura: 794 ft
Estaciones meteorológicas cercanas

Alt 794 ft 34.26 °N, 85.25 °W | Updated 4 seconds ago

Nublado
Nublado
58.8 ° F
Sensación térmica 58.8 ° F
N
3.1
Viento Variable Viento desde NO
Gusts 8.3 mph

Hoy
Alta -- | Baja -- ° F
--% Posibilidad de precipitaciones
Ayer
Alta -- | Baja -- ° F
Precip. -- pul
8:00 AM 6:49 PM
Cuarto creciente, 58% visible
Presión 29.90 pul
Visibilidad 10.0 Millas
Nubes Nubes dispersas 4100 ft
Muy nublado 4900 ft
Nublado 9500 ft
Punto de rocío 47 ° F
Humedad 64%
Precipitaciones 0.00 pul
Espesor de la nieve No disponible.
UV 1 de una escala de 12
Polen .90 de una escala de 12
Calidad del aire No disponible.
Flu Activity No disponible.
METAR KRMG 311953Z AUTO 30008KT 10SM SCT041 BKN049 OVC095 15/06 A2990 RMK AO2 SLP123 T01500061

More Conditions Fewer Conditions

Presión 29.90 pul
Visibilidad 10.0 Millas
Nubes Nubes dispersas 4100 ft
Muy nublado 4900 ft
Nublado 9500 ft
Punto de rocío 47 ° F
Humedad 64%
Precipitaciones 0.00 pul
Espesor de la nieve No disponible.
UV 1 de una escala de 12
Polen .90 de una escala de 12
Calidad del aire No disponible.
Flu Activity No disponible.
METAR KRMG 311953Z AUTO 30008KT 10SM SCT041 BKN049 OVC095 15/06 A2990 RMK AO2 SLP123 T01500061

More Conditions Fewer Conditions

10-Day Weather Forecast

Almanac

Astronomía

Oct. 31, 2014 Salida Puesta
Hora real
Crepúsculo civil
Crepúsculo náutico
Crepúsculo astronómico
Luna
Horas de luz
Horas de luz
Tomorrow will be .
, % of the Moon is Illuminated

Extremos de hoy

Máximos del estado Bajos del estado

Community

WunderPhotos

Upload Photos

1,766,733 ¡fotos cargadas!

WunderBlogs® & News

Nearby

Calidad del aire

  Calidad del aire Índice AQ Contaminante
Not available.

Grosos de nieve

Estación Profundido Altura

Actividad de terremotos

Ciudad Distance Mag. Tiempo y dato
Magnitud mínima muestra es 2,5.

Temperaturas de aguas costeras

Lugar Temperatura

Estaciones meteorológicas cercanas